Time;durP1;ratioP1;P1;durP2;ratioP2;P2;SDS_P1;SDS_P2;PMS_P1;PMS_P2;Temp;Humidity;BMP_temperature;BMP_pressure;BME280_temperature;BME280_humidity;BME280_pressure;Samples;Min_cycle;Max_cycle;Signal;HPM_P1;HPM_P2
2022/10/04 00:04:09;;;;;;;2.88;1.00;;;;;;;17.75;62.13;97280.94;10514811;28;20087;-28
2022/10/04 00:09:18;;;;;;;2.53;1.02;;;;;;;17.71;62.30;97277.50;10511390;28;20039;-29
2022/10/04 00:14:23;;;;;;;2.50;1.27;;;;;;;17.72;62.29;97278.34;10520750;28;20518;-29
2022/10/04 00:19:44;;;;;;;2.15;1.17;;;;;;;17.73;62.15;97277.53;10520104;28;20431;-29
2022/10/04 00:25:06;;;;;;;1.33;0.85;;;;;;;17.73;62.00;97272.47;10513290;28;20039;-28
2022/10/04 00:30:22;;;;;;;1.77;1.00;;;;;;;17.72;62.19;97265.69;10514513;28;20040;-30
2022/10/04 00:35:28;;;;;;;1.13;0.90;;;;;;;17.67;62.39;97252.13;10559993;28;20079;-29
2022/10/04 00:40:34;;;;;;;2.38;1.08;;;;;;;17.70;62.10;97252.16;10539991;28;20043;-30
2022/10/04 00:45:38;;;;;;;1.52;0.98;;;;;;;17.70;61.77;97259.75;10511680;28;20092;-28
2022/10/04 00:50:42;;;;;;;1.40;0.90;;;;;;;17.75;62.12;97251.38;10508844;28;20108;-29
2022/10/04 00:55:48;;;;;;;1.70;1.10;;;;;;;17.79;62.18;97248.06;10526024;28;20052;-28
2022/10/04 01:00:52;;;;;;;2.65;1.10;;;;;;;17.82;62.12;97247.25;10517785;28;20064;-29
2022/10/04 01:05:58;;;;;;;2.13;0.80;;;;;;;17.73;61.89;97252.22;10516906;28;20097;-29
2022/10/04 01:11:03;;;;;;;2.85;1.08;;;;;;;17.71;61.55;97248.78;10510644;28;20040;-29
2022/10/04 01:16:13;;;;;;;2.72;2.03;;;;;;;17.74;61.88;97253.91;10513867;28;20770;-29
2022/10/04 01:21:19;;;;;;;0.73;0.70;;;;;;;17.71;62.00;97256.38;10539514;28;20394;-28
2022/10/04 01:26:29;;;;;;;1.30;1.20;;;;;;;17.70;62.09;97254.69;10510912;28;20028;-29
2022/10/04 01:31:32;;;;;;;0.90;0.80;;;;;;;17.69;62.01;97237.78;10517784;28;20035;-28
2022/10/04 01:36:35;;;;;;;2.40;1.10;;;;;;;17.70;62.08;97247.09;10511136;28;20078;-29
2022/10/04 01:41:44;;;;;;;1.40;1.10;;;;;;;17.69;62.10;97235.25;10513680;28;20038;-29
2022/10/04 01:46:46;;;;;;;1.27;1.02;;;;;;;17.68;62.03;97238.63;10511141;28;20055;-28
2022/10/04 01:52:06;;;;;;;1.00;0.70;;;;;;;17.67;61.99;97236.94;10511852;28;20028;-28
2022/10/04 01:57:21;;;;;;;1.60;0.95;;;;;;;17.79;61.92;97227.78;10512972;28;20031;-29
2022/10/04 02:02:31;;;;;;;3.72;0.82;;;;;;;17.83;61.86;97206.72;10512898;28;20048;-29
2022/10/04 02:07:35;;;;;;;1.25;0.95;;;;;;;17.76;62.03;97206.66;10508647;28;20043;-29
2022/10/04 02:12:37;;;;;;;1.15;1.05;;;;;;;17.71;61.76;97198.13;10512750;28;20114;-28
2022/10/04 02:17:41;;;;;;;1.25;0.80;;;;;;;17.71;61.96;97203.19;10509512;28;20031;-29
2022/10/04 02:22:44;;;;;;;2.88;1.23;;;;;;;17.69;61.77;97195.59;10517868;28;20043;-29
2022/10/04 02:27:45;;;;;;;1.27;0.90;;;;;;;17.68;62.22;97185.47;10506118;28;20040;-29
2022/10/04 02:32:59;;;;;;;1.60;1.20;;;;;;;17.63;62.01;97172.75;10518502;28;20031;-29
2022/10/04 02:38:12;;;;;;;1.98;1.00;;;;;;;17.60;62.14;97176.94;10510941;28;20073;-29
2022/10/04 02:43:21;;;;;;;1.25;0.90;;;;;;;17.65;61.97;97183.72;10504732;28;20045;-29
2022/10/04 02:48:43;;;;;;;1.17;0.68;;;;;;;17.65;62.12;97185.44;10508468;28;20116;-29
2022/10/04 02:54:18;;;;;;;1.65;0.80;;;;;;;17.65;61.87;97182.91;10531497;28;20130;-30
2022/10/04 02:59:20;;;;;;;1.35;1.00;;;;;;;17.74;61.99;97181.28;10496596;28;20044;-28
2022/10/04 03:04:24;;;;;;;1.80;0.80;;;;;;;17.81;61.84;97179.66;10502287;28;20510;-29
2022/10/04 03:09:25;;;;;;;1.30;0.90;;;;;;;17.77;61.97;97172.88;10509402;28;20386;-30
2022/10/04 03:14:27;;;;;;;1.73;1.00;;;;;;;17.73;61.98;97176.22;10523222;28;20040;-29
2022/10/04 03:19:29;;;;;;;1.25;0.95;;;;;;;17.66;61.92;97165.16;10531244;28;20028;-29
2022/10/04 03:24:46;;;;;;;1.00;0.85;;;;;;;17.68;61.97;97162.66;10530849;28;20085;-29
2022/10/04 03:29:49;;;;;;;0.70;0.70;;;;;;;17.63;62.01;97169.34;10523058;28;20032;-28
2022/10/04 03:35:06;;;;;;;0.88;0.70;;;;;;;17.61;62.14;97160.91;10523609;28;20039;-28
2022/10/04 03:40:09;;;;;;;1.33;0.90;;;;;;;17.61;61.93;97161.75;10525665;28;20062;-29
2022/10/04 03:45:15;;;;;;;1.20;1.10;;;;;;;17.62;61.89;97170.19;10533608;28;20024;-29
2022/10/04 03:50:28;;;;;;;1.50;1.10;;;;;;;17.61;62.03;97160.91;10531134;28;20035;-29
2022/10/04 03:55:35;;;;;;;1.95;0.80;;;;;;;17.73;61.83;97166.09;10525987;28;20472;-28
2022/10/04 04:00:42;;;;;;;0.90;0.77;;;;;;;17.75;61.29;97170.31;10519795;28;20027;-29
2022/10/04 04:05:52;;;;;;;1.30;0.80;;;;;;;17.88;61.28;97173.81;10524843;28;20036;-28
2022/10/04 04:10:57;;;;;;;1.50;0.80;;;;;;;17.93;61.16;97174.72;10522150;28;20119;-28
2022/10/04 04:16:00;;;;;;;1.40;1.13;;;;;;;17.99;61.26;97177.34;10503134;28;20122;-29
2022/10/04 04:21:03;;;;;;;1.10;0.50;;;;;;;17.95;61.31;97183.19;10514261;28;20031;-29
2022/10/04 04:26:15;;;;;;;2.50;1.00;;;;;;;17.96;61.08;97184.88;10502008;28;20032;-30
2022/10/04 04:31:18;;;;;;;2.65;0.85;;;;;;;17.96;61.26;97189.94;10500044;28;20032;-29
2022/10/04 04:36:19;;;;;;;0.93;0.70;;;;;;;17.94;61.30;97200.09;10500329;28;20025;-29
2022/10/04 04:41:21;;;;;;;1.50;1.15;;;;;;;17.98;61.26;97188.31;10511733;28;20037;-29
2022/10/04 04:46:22;;;;;;;2.42;1.10;;;;;;;17.94;61.01;97178.97;10509851;28;20050;-29
2022/10/04 04:51:24;;;;;;;3.25;1.20;;;;;;;17.88;61.24;97187.34;10496622;28;20037;-28
2022/10/04 04:56:26;;;;;;;4.45;1.10;;;;;;;17.74;60.04;97177.94;10491660;28;20029;-29
2022/10/04 05:01:34;;;;;;;3.63;1.17;;;;;;;17.84;61.15;97180.53;10490907;28;20031;-28
2022/10/04 05:06:36;;;;;;;4.35;1.40;;;;;;;17.96;61.20;97173.06;10501516;28;20035;-29
2022/10/04 05:11:38;;;;;;;7.80;1.30;;;;;;;17.99;60.50;97184.94;10503325;28;20060;-29
2022/10/04 05:17:05;;;;;;;3.60;1.02;;;;;;;18.02;60.91;97179.88;10517334;28;20028;-28
2022/10/04 05:22:12;;;;;;;7.97;1.50;;;;;;;17.99;60.46;97179.88;10512100;28;20067;-29
2022/10/04 05:27:15;;;;;;;5.53;1.13;;;;;;;17.93;60.71;97179.81;10506351;28;20039;-29
2022/10/04 05:32:42;;;;;;;2.45;1.17;;;;;;;17.99;60.58;97174.81;10517895;28;20039;-29
2022/10/04 05:37:59;;;;;;;11.73;1.05;;;;;;;17.89;59.67;97173.84;10505776;28;20024;-30
2022/10/04 05:43:00;;;;;;;4.90;1.13;;;;;;;17.77;59.52;97150.09;10506027;28;20161;-28
2022/10/04 05:48:06;;;;;;;4.85;1.42;;;;;;;17.91;59.81;97173.88;10517282;28;20114;-29
2022/10/04 05:53:23;;;;;;;2.00;1.15;;;;;;;17.91;60.16;97181.47;10509727;28;20028;-29
2022/10/04 05:58:56;;;;;;;2.80;1.00;;;;;;;17.90;60.37;97179.78;10519102;28;20539;-28
2022/10/04 06:04:00;;;;;;;4.30;1.00;;;;;;;17.90;60.40;97164.59;10505157;28;20052;-29
2022/10/04 06:09:24;;;;;;;2.00;0.85;;;;;;;17.94;60.56;97161.22;10510879;28;20377;-29
2022/10/04 06:14:53;;;;;;;1.63;1.00;;;;;;;17.97;60.72;97166.31;10514245;28;20105;-28
2022/10/04 06:20:02;;;;;;;2.05;0.88;;;;;;;17.95;60.53;97161.25;10511404;28;20126;-29
2022/10/04 06:25:11;;;;;;;1.85;0.70;;;;;;;17.90;60.58;97174.72;10511625;28;20415;-29
2022/10/04 06:30:17;;;;;;;2.33;0.98;;;;;;;17.88;60.71;97178.88;10515774;28;20047;-29
2022/10/04 06:35:23;;;;;;;1.20;0.98;;;;;;;17.89;60.64;97183.13;10510823;28;20058;-30
2022/10/04 06:40:26;;;;;;;1.63;1.10;;;;;;;17.88;60.55;97196.63;10514125;28;20048;-29
2022/10/04 06:45:37;;;;;;;3.70;1.08;;;;;;;17.84;60.56;97190.69;10509344;28;20036;-29
2022/10/04 06:51:32;;;;;;;1.35;0.95;;;;;;;17.87;60.67;97207.59;10505078;28;20369;-29
2022/10/04 06:56:39;;;;;;;1.50;0.80;;;;;;;17.86;61.03;97198.31;10469559;28;20040;-28
2022/10/04 07:01:51;;;;;;;1.30;0.80;;;;;;;17.86;60.63;97193.22;10515536;28;20079;-29
2022/10/04 07:07:22;;;;;;;1.83;0.80;;;;;;;17.81;60.71;97189.78;10502459;28;20032;-29
2022/10/04 07:12:18;;;;;;;3.55;0.90;;;;;;;17.79;61.22;97196.53;10509675;28;20054;-29
2022/10/04 07:17:46;;;;;;;1.60;1.08;;;;;;;17.94;60.87;97206.81;10508426;28;20032;-28
2022/10/04 07:22:57;;;;;;;1.05;0.85;;;;;;;17.95;60.85;97221.19;10499079;28;20048;-29
2022/10/04 07:33:33;;;;;;;1.80;0.95;;;;;;;17.87;60.76;97215.19;10511692;28;20721;-29
2022/10/04 07:38:42;;;;;;;1.80;0.90;;;;;;;17.87;60.77;97220.25;10511250;28;20036;-29
2022/10/04 07:43:50;;;;;;;0.73;0.70;;;;;;;17.84;60.52;97210.94;10507402;28;20125;-28
2022/10/04 07:48:51;;;;;;;0.85;0.73;;;;;;;17.66;61.05;97180.38;10510865;28;20044;-28
2022/10/04 07:54:09;;;;;;;1.33;0.65;;;;;;;17.86;60.99;97216.91;10509256;28;20035;-29
2022/10/04 07:59:23;;;;;;;1.77;1.08;;;;;;;17.86;60.91;97216.03;10506955;28;20141;-29
2022/10/04 08:04:54;;;;;;;1.02;0.80;;;;;;;17.85;60.89;97227.00;10515197;28;20032;-30
2022/10/04 08:10:10;;;;;;;2.42;1.17;;;;;;;17.85;60.88;97232.94;10515502;28;20134;-29
2022/10/04 08:15:37;;;;;;;0.90;0.73;;;;;;;17.85;60.78;97232.94;10519402;28;20103;-29
2022/10/04 08:20:53;;;;;;;1.77;0.90;;;;;;;17.92;61.12;97214.41;10519773;28;20293;-29
2022/10/04 08:26:15;;;;;;;2.42;0.70;;;;;;;17.96;60.88;97215.28;10515020;28;20043;-28
2022/10/04 08:31:23;;;;;;;1.30;1.13;;;;;;;17.90;60.94;97210.19;10518519;28;20032;-29
2022/10/04 08:36:53;;;;;;;1.95;1.02;;;;;;;17.89;60.60;97203.38;10513465;28;20077;-28
2022/10/04 08:42:03;;;;;;;1.40;0.80;;;;;;;17.88;61.00;97209.28;10514757;28;20438;-29
2022/10/04 08:47:24;;;;;;;1.15;0.85;;;;;;;17.86;60.84;97204.22;10515287;28;20515;-29
2022/10/04 08:53:06;;;;;;;0.73;0.60;;;;;;;17.83;60.84;97194.03;10514698;28;20056;-30
2022/10/04 08:58:22;;;;;;;1.05;0.70;;;;;;;17.85;60.92;97201.66;10475442;28;20051;-30
2022/10/04 09:03:47;;;;;;;1.17;0.98;;;;;;;17.85;60.86;97204.22;10514973;28;20032;-29
2022/10/04 09:09:16;;;;;;;2.15;0.90;;;;;;;17.87;60.78;97217.72;10510199;28;20103;-28
2022/10/04 09:14:33;;;;;;;1.00;0.88;;;;;;;17.84;60.89;97210.09;10515612;28;20052;-29
2022/10/04 09:19:54;;;;;;;0.65;0.65;;;;;;;17.86;60.95;97208.44;10520017;28;20040;-30
2022/10/04 09:25:23;;;;;;;0.82;0.77;;;;;;;17.91;60.71;97205.09;10511763;28;20028;-30
2022/10/04 09:30:55;;;;;;;0.63;0.60;;;;;;;17.90;61.06;97200.88;10511921;28;20487;-29
2022/10/04 09:36:28;;;;;;;0.63;0.60;;;;;;;17.90;60.95;97194.97;10523124;28;20432;-29
2022/10/04 09:41:51;;;;;;;0.93;0.70;;;;;;;17.88;60.82;97187.34;10503159;28;20107;-29
2022/10/04 09:47:11;;;;;;;0.85;0.85;;;;;;;17.87;60.85;97184.78;10509771;28;20036;-28
2022/10/04 09:52:42;;;;;;;0.93;0.90;;;;;;;17.85;60.85;97179.75;10515114;28;20101;-29
2022/10/04 09:58:29;;;;;;;1.38;0.80;;;;;;;17.85;60.91;97177.22;10517290;28;20514;-28
2022/10/04 10:04:07;;;;;;;1.00;0.75;;;;;;;17.86;60.66;97183.09;10488760;28;20483;-28
2022/10/04 10:15:14;;;;;;;1.30;0.73;;;;;;;17.86;60.75;97198.31;10511590;28;20169;-29
2022/10/04 10:20:48;;;;;;;0.68;0.50;;;;;;;17.83;60.86;97195.75;10507069;28;20040;-29
2022/10/04 10:26:23;;;;;;;0.77;0.63;;;;;;;17.84;60.88;97195.75;10509024;28;20372;-29
2022/10/04 10:31:46;;;;;;;1.33;0.60;;;;;;;17.91;60.97;97186.53;10512911;28;20111;-29
2022/10/04 10:37:08;;;;;;;3.13;1.13;;;;;;;17.90;60.80;97184.84;10510834;28;20105;-29
2022/10/04 10:42:26;;;;;;;0.68;0.65;;;;;;;17.87;60.61;97172.13;10510794;28;20041;-29
2022/10/04 10:47:51;;;;;;;4.82;1.50;;;;;;;17.82;60.08;97174.63;10518615;28;20028;-28
2022/10/04 10:53:30;;;;;;;1.25;0.95;;;;;;;17.86;60.33;97180.56;10512382;28;20030;-28
2022/10/04 10:58:39;;;;;;;1.60;1.02;;;;;;;17.91;60.38;97189.06;10467068;28;20044;-30
2022/10/04 11:04:19;;;;;;;4.00;1.30;;;;;;;17.91;60.31;97192.44;10518196;28;20054;-29
2022/10/04 11:09:32;;;;;;;2.90;0.70;;;;;;;17.94;60.41;97186.56;10514058;28;20031;-29
2022/10/04 11:14:50;;;;;;;4.57;1.58;;;;;;;17.94;60.47;97181.50;10514390;28;20051;-29
2022/10/04 11:20:20;;;;;;;2.60;1.52;;;;;;;17.93;60.76;97174.72;10507068;28;20075;-28
2022/10/04 11:25:47;;;;;;;2.65;1.00;;;;;;;17.95;60.54;97168.84;10513309;28;20029;-28
2022/10/04 11:30:57;;;;;;;1.40;0.80;;;;;;;18.01;60.46;97163.00;10512343;28;20032;-29
2022/10/04 11:36:35;;;;;;;2.50;1.35;;;;;;;18.01;60.95;97153.69;10516632;28;20480;-28
2022/10/04 11:41:54;;;;;;;2.47;1.10;;;;;;;18.04;60.30;97153.72;10520219;28;20044;-28
2022/10/04 11:47:23;;;;;;;2.85;0.90;;;;;;;18.01;60.80;97152.84;10521037;28;20032;-28
2022/10/04 11:53:02;;;;;;;2.63;0.90;;;;;;;18.02;60.50;97149.47;10519728;28;20107;-28
2022/10/04 11:58:24;;;;;;;2.47;0.82;;;;;;;18.01;60.41;97140.19;10519466;28;20484;-28
2022/10/04 12:03:26;;;;;;;6.82;0.80;;;;;;;18.01;60.55;97145.25;10517218;28;20056;-29
2022/10/04 12:08:36;;;;;;;6.43;1.75;;;;;;;18.04;60.62;97143.59;10515874;28;20029;-29
2022/10/04 12:14:09;;;;;;;2.42;1.67;;;;;;;17.98;60.61;97137.63;10523253;28;20032;-29
2022/10/04 12:19:38;;;;;;;5.15;1.27;;;;;;;18.01;60.81;97150.31;10518261;28;20037;-29
2022/10/04 12:25:02;;;;;;;5.63;1.88;;;;;;;18.01;60.81;97145.25;10521429;28;20044;-29
2022/10/04 12:30:24;;;;;;;5.85;1.10;;;;;;;18.02;60.65;97139.34;10514800;28;20028;-29
2022/10/04 12:35:43;;;;;;;4.03;1.38;;;;;;;18.03;60.78;97138.50;10512554;28;20583;-29
2022/10/04 12:41:20;;;;;;;1.85;1.10;;;;;;;18.03;60.75;97123.31;10521774;28;20078;-29
2022/10/04 12:46:21;;;;;;;2.95;1.38;;;;;;;18.03;60.90;97128.38;10515076;28;20563;-28
2022/10/04 12:51:53;;;;;;;1.37;0.80;;;;;;;18.05;60.60;97121.63;10513676;28;20077;-29
2022/10/04 12:57:17;;;;;;;1.95;0.90;;;;;;;18.04;60.42;97125.84;10507351;28;20762;-29
2022/10/04 13:02:26;;;;;;;2.83;1.02;;;;;;;18.02;60.46;97135.13;10516303;28;20033;-29
2022/10/04 13:08:08;;;;;;;3.60;1.25;;;;;;;18.01;60.40;97135.94;10513154;28;20399;-29
2022/10/04 13:13:31;;;;;;;3.03;1.15;;;;;;;17.99;60.71;97131.72;10517672;28;20045;-29
2022/10/04 13:18:38;;;;;;;2.83;1.48;;;;;;;17.93;60.87;97131.66;10514099;28;20032;-28
2022/10/04 13:23:45;;;;;;;1.83;1.20;;;;;;;17.95;61.09;97137.59;10516800;28;20031;-29
2022/10/04 13:29:01;;;;;;;1.25;1.10;;;;;;;17.99;60.67;97144.41;10512866;28;20040;-29
2022/10/04 13:34:37;;;;;;;5.75;1.90;;;;;;;17.92;61.02;97145.19;10512325;28;20514;-28
2022/10/04 13:40:02;;;;;;;3.25;2.38;;;;;;;17.96;60.86;97149.41;10519432;28;20043;-29
2022/10/04 13:45:08;;;;;;;3.72;2.00;;;;;;;18.00;60.89;97144.38;10509113;28;20036;-28
2022/10/04 13:50:11;;;;;;;7.60;2.72;;;;;;;18.06;61.84;97151.19;10516433;28;20723;-29
2022/10/04 14:01:15;;;;;;;2.17;1.58;;;;;;;18.03;60.43;97139.38;10505343;28;20396;-27
2022/10/04 14:06:56;;;;;;;1.83;1.23;;;;;;;18.00;60.41;97143.56;10514431;28;20055;-28
2022/10/04 14:12:24;;;;;;;4.40;1.88;;;;;;;17.96;61.02;97141.81;10506616;28;20028;-29
2022/10/04 14:17:53;;;;;;;3.90;1.77;;;;;;;17.99;60.63;97134.25;10516009;28;20024;-28
2022/10/04 14:23:06;;;;;;;2.65;1.27;;;;;;;18.01;60.67;97130.88;10504734;28;20036;-29
2022/10/04 14:28:44;;;;;;;1.60;1.30;;;;;;;18.02;60.76;97125.00;10509717;28;20111;-29
2022/10/04 14:33:56;;;;;;;3.70;1.25;;;;;;;18.00;60.63;97110.63;10507093;28;20107;-28
2022/10/04 14:39:32;;;;;;;3.22;1.15;;;;;;;18.02;60.31;97108.94;10513143;28;20054;-29
2022/10/04 14:45:19;;;;;;;8.83;1.47;;;;;;;17.94;60.77;97106.34;10509493;28;20235;-29
2022/10/04 14:50:34;;;;;;;4.55;2.58;;;;;;;17.93;61.39;97103.81;10487410;28;20032;-28
2022/10/04 14:55:53;;;;;;;10.40;2.47;;;;;;;17.96;61.78;97098.75;10516464;28;20031;-30
2022/10/04 15:01:12;;;;;;;6.20;2.00;;;;;;;17.98;61.60;97094.56;10512093;28;20039;-28
2022/10/04 15:06:27;;;;;;;7.88;2.05;;;;;;;17.98;61.26;97097.09;10502476;28;20480;-28
2022/10/04 15:11:39;;;;;;;8.10;2.42;;;;;;;17.95;61.68;97087.78;10513221;28;20472;-29
2022/10/04 15:16:42;;;;;;;3.42;1.80;;;;;;;17.94;61.59;97087.75;10509765;28;20067;-29
2022/10/04 15:22:01;;;;;;;4.88;2.33;;;;;;;17.92;61.80;97082.69;10508838;28;20112;-29
2022/10/04 15:27:32;;;;;;;6.95;1.80;;;;;;;17.94;61.38;97085.22;10505014;28;20016;-28
2022/10/04 15:32:58;;;;;;;5.00;1.92;;;;;;;17.90;61.62;97084.34;10512400;28;20078;-29
2022/10/04 15:38:05;;;;;;;5.45;1.90;;;;;;;17.94;61.89;97075.09;10501985;28;20043;-29
2022/10/04 15:43:17;;;;;;;8.73;2.28;;;;;;;17.97;62.26;97080.19;10509794;28;20089;-29
2022/10/04 15:48:39;;;;;;;8.88;2.58;;;;;;;17.97;62.15;97080.19;10515983;28;20500;-29
2022/10/04 15:54:17;;;;;;;3.33;1.75;;;;;;;17.95;61.76;97081.84;10520044;28;20036;-30
2022/10/04 15:59:43;;;;;;;1.65;1.50;;;;;;;17.95;61.47;97077.66;10502596;28;20535;-29
2022/10/04 16:05:05;;;;;;;5.57;1.92;;;;;;;17.92;61.33;97077.59;10505346;28;20034;-29
2022/10/04 16:10:14;;;;;;;4.90;1.50;;;;;;;17.92;61.69;97076.78;10509402;28;20136;-29
2022/10/04 16:15:39;;;;;;;2.10;1.70;;;;;;;17.83;61.73;97067.41;10514286;28;20036;-26
2022/10/04 16:20:54;;;;;;;3.88;1.92;;;;;;;17.93;61.73;97079.31;10498555;28;20039;-26
2022/10/04 16:26:32;;;;;;;2.42;2.17;;;;;;;17.92;61.48;97086.91;10515830;28;20028;-28
2022/10/04 16:31:44;;;;;;;2.63;1.40;;;;;;;17.96;61.90;97108.88;10523428;28;20115;-29
2022/10/04 16:36:53;;;;;;;4.70;1.70;;;;;;;17.93;62.04;97114.75;10515663;28;20085;-29
2022/10/04 16:42:00;;;;;;;3.63;1.75;;;;;;;17.96;62.00;97126.63;10517531;28;20039;-29
2022/10/04 16:47:18;;;;;;;3.83;1.55;;;;;;;17.98;62.44;97128.34;10520072;28;20119;-30
2022/10/04 16:52:57;;;;;;;4.97;1.65;;;;;;;17.98;62.65;97130.03;10516303;28;20402;-29
2022/10/04 16:58:25;;;;;;;2.05;1.55;;;;;;;17.89;61.83;97142.59;10476888;28;20059;-29
2022/10/04 17:03:33;;;;;;;4.07;1.38;;;;;;;17.86;61.80;97142.56;10515425;28;20032;-28
2022/10/04 17:08:48;;;;;;;11.30;2.85;;;;;;;17.91;62.37;97156.16;10520243;28;20424;-28
2022/10/04 17:13:58;;;;;;;2.85;1.65;;;;;;;17.80;62.70;97157.72;10514461;28;20441;-29
2022/10/04 17:19:07;;;;;;;6.13;1.45;;;;;;;17.76;62.22;97161.06;10518262;28;20103;-29
2022/10/04 17:24:36;;;;;;;3.88;1.55;;;;;;;17.89;61.78;97163.72;10515187;28;20496;-29
2022/10/04 17:30:04;;;;;;;2.83;1.75;;;;;;;17.88;62.39;97167.09;10520536;28;20056;-28
2022/10/04 17:35:18;;;;;;;3.88;1.33;;;;;;;17.89;61.99;97162.84;10517495;28;20042;-39
2022/10/04 17:40:46;;;;;;;30.63;3.25;;;;;;;17.93;61.86;97160.38;10516106;28;20036;-36
2022/10/04 17:46:14;;;;;;;6.78;1.70;;;;;;;17.89;62.39;97157.78;10506446;28;20385;-28
2022/10/04 17:56:58;;;;;;;4.25;1.60;;;;;;;18.00;62.67;97146.09;10507280;28;20754;-30
2022/10/04 18:02:09;;;;;;;6.82;2.20;;;;;;;17.99;62.75;97144.41;10505536;28;20424;-29
2022/10/04 18:07:36;;;;;;;3.95;1.65;;;;;;;17.90;62.50;97134.19;10511774;28;20044;-29
2022/10/04 18:12:49;;;;;;;9.75;1.98;;;;;;;17.85;62.53;97140.88;10506277;28;20041;-29
2022/10/04 18:17:50;;;;;;;3.83;1.33;;;;;;;17.82;62.31;97130.72;10503981;28;20500;-28
2022/10/04 18:23:01;;;;;;;2.95;1.33;;;;;;;17.90;62.12;97136.72;10504969;28;20047;-28
2022/10/04 18:28:07;;;;;;;2.15;1.65;;;;;;;17.85;62.36;97141.75;10454744;28;20492;-29
2022/10/04 18:33:14;;;;;;;5.63;1.50;;;;;;;17.85;62.57;97148.47;10511307;28;20446;-29
2022/10/04 18:38:27;;;;;;;2.60;1.67;;;;;;;17.85;62.69;97148.47;10502833;28;20042;-28
2022/10/04 18:43:29;;;;;;;2.28;1.60;;;;;;;17.85;62.41;97163.69;10505773;28;20043;-28
2022/10/04 18:48:41;;;;;;;2.33;1.50;;;;;;;17.83;62.52;97163.66;10512320;28;20504;-28
2022/10/04 18:53:45;;;;;;;6.97;1.70;;;;;;;17.82;62.58;97161.13;10506295;28;20044;-29
2022/10/04 19:04:54;;;;;;;3.53;1.55;;;;;;;17.97;62.68;97161.25;10506249;28;20039;-29
2022/10/04 19:09:55;;;;;;;2.42;1.65;;;;;;;17.96;62.57;97170.53;10504649;28;20093;-28
2022/10/04 19:15:07;;;;;;;4.35;1.40;;;;;;;17.91;62.27;97171.34;10514629;28;20036;-28
2022/10/04 19:20:36;;;;;;;1.65;1.35;;;;;;;17.85;62.22;97178.88;10508879;28;20094;-29
2022/10/04 19:25:44;;;;;;;1.75;1.10;;;;;;;17.87;62.12;97170.47;10509216;28;20116;-29
2022/10/04 19:31:18;;;;;;;2.95;1.63;;;;;;;17.93;62.01;97179.81;10504188;28;20024;-29
2022/10/04 19:36:30;;;;;;;4.57;1.40;;;;;;;17.92;62.26;97178.94;10507568;28;20040;-28
2022/10/04 19:41:33;;;;;;;3.25;1.73;;;;;;;17.91;62.34;97179.78;10508052;28;20036;-28
2022/10/04 19:46:57;;;;;;;1.77;1.30;;;;;;;17.96;62.27;97184.88;10509837;28;20044;-30
2022/10/04 19:52:25;;;;;;;3.22;1.27;;;;;;;17.98;61.64;97184.06;10511913;28;20564;-29
2022/10/04 19:57:36;;;;;;;3.85;1.42;;;;;;;17.94;62.55;97186.56;10507131;28;20599;-29
2022/10/04 20:02:40;;;;;;;3.53;1.30;;;;;;;17.93;62.38;97195.00;10515638;28;20024;-29
2022/10/04 20:07:48;;;;;;;4.05;1.83;;;;;;;17.97;63.13;97202.63;10507724;28;20067;-29
2022/10/04 20:13:11;;;;;;;4.10;1.40;;;;;;;17.98;63.24;97195.91;10515340;28;20530;-30
2022/10/04 20:18:32;;;;;;;3.05;1.30;;;;;;;17.98;62.75;97209.41;10517692;28;20036;-29
2022/10/04 20:23:39;;;;;;;3.83;1.67;;;;;;;17.89;62.87;97213.50;10518876;28;20039;-32
2022/10/04 20:28:41;;;;;;;3.40;1.33;;;;;;;17.81;62.95;97205.84;10515111;28;20152;-28
2022/10/04 20:33:41;;;;;;;2.72;1.25;;;;;;;17.88;62.51;97211.81;10511686;28;20033;-29
2022/10/04 20:38:51;;;;;;;1.23;1.13;;;;;;;17.88;62.14;97216.88;10510165;28;20033;-29
2022/10/04 20:43:53;;;;;;;3.03;1.13;;;;;;;17.85;62.68;97216.88;10508320;28;20637;-29
2022/10/04 20:48:56;;;;;;;3.05;1.38;;;;;;;17.82;62.70;97216.84;10522683;28;20655;-29
2022/10/04 20:53:58;;;;;;;2.10;1.25;;;;;;;17.76;62.93;97214.25;10520995;28;20606;-30
2022/10/04 20:59:01;;;;;;;2.50;1.05;;;;;;;17.83;62.83;97238.81;10509198;28;20399;-29
2022/10/04 21:04:16;;;;;;;2.47;1.20;;;;;;;17.81;62.72;97243.84;10508107;28;20059;-30
2022/10/04 21:09:17;;;;;;;1.75;1.33;;;;;;;17.83;62.63;97241.34;10519809;28;20032;-29
2022/10/04 21:14:22;;;;;;;1.52;1.30;;;;;;;17.90;63.17;97241.41;10517878;28;20036;-30
2022/10/04 21:19:32;;;;;;;1.67;1.48;;;;;;;17.94;63.13;97249.88;10516525;28;20117;-28
2022/10/04 21:24:54;;;;;;;2.15;1.33;;;;;;;17.87;62.71;97250.66;10513407;28;20656;-30
2022/10/04 21:29:56;;;;;;;2.28;1.27;;;;;;;17.85;62.67;97249.78;10514399;28;20028;-29
2022/10/04 21:34:56;;;;;;;1.70;1.02;;;;;;;17.82;62.71;97244.72;10507005;28;20041;-30
2022/10/04 21:39:56;;;;;;;2.97;1.73;;;;;;;17.80;62.89;97243.81;10521690;28;20024;-28
2022/10/04 21:44:57;;;;;;;2.33;1.60;;;;;;;17.80;62.73;97244.69;10511082;28;20554;-29
2022/10/04 21:49:57;;;;;;;2.57;1.37;;;;;;;17.79;62.83;97252.25;10518691;28;20040;-29
2022/10/04 21:54:58;;;;;;;1.70;1.30;;;;;;;17.80;62.96;97251.41;10516027;28;20802;-29
2022/10/04 21:59:58;;;;;;;2.37;1.17;;;;;;;17.80;62.51;97252.28;10507290;28;20404;-29
2022/10/04 22:04:58;;;;;;;1.43;1.33;;;;;;;17.81;62.58;97246.38;10509858;28;20321;-29
2022/10/04 22:09:59;;;;;;;1.00;0.90;;;;;;;17.82;62.41;97242.19;10511570;28;20045;-30
2022/10/04 22:14:59;;;;;;;2.03;1.00;;;;;;;17.82;62.52;97243.00;10516109;28;20293;-29
2022/10/04 22:19:59;;;;;;;2.35;1.27;;;;;;;17.88;62.68;97248.16;10506941;28;20286;-30
2022/10/04 22:25:00;;;;;;;4.13;1.30;;;;;;;17.74;62.93;97213.38;10519439;28;20032;-29
2022/10/04 22:30:00;;;;;;;1.43;0.90;;;;;;;17.89;62.93;97238.84;10500213;28;20790;-29
2022/10/04 22:35:11;;;;;;;2.00;1.30;;;;;;;17.83;62.52;97239.63;10510156;28;20298;-29
2022/10/04 22:40:20;;;;;;;1.50;1.00;;;;;;;17.84;62.34;97230.38;10514560;28;20044;-30
2022/10/04 22:45:24;;;;;;;1.10;0.80;;;;;;;17.81;62.37;97220.19;10510981;28;20069;-28
2022/10/04 22:50:34;;;;;;;1.70;1.30;;;;;;;17.79;62.49;97211.72;10514289;28;20104;-27
2022/10/04 22:55:35;;;;;;;1.88;1.10;;;;;;;17.79;62.89;97217.66;10509611;28;20515;-29
2022/10/04 23:00:35;;;;;;;1.70;0.90;;;;;;;17.79;62.38;97216.78;10504101;28;20040;-29
2022/10/04 23:05:36;;;;;;;1.40;1.13;;;;;;;17.79;62.32;97219.31;10511281;28;20649;-30
2022/10/04 23:10:36;;;;;;;0.90;0.90;;;;;;;17.81;62.46;97223.59;10515242;28;20329;-28
2022/10/04 23:15:36;;;;;;;1.10;1.00;;;;;;;17.75;62.24;97215.06;10507206;28;20298;-29
2022/10/04 23:20:37;;;;;;;3.60;0.93;;;;;;;17.77;62.56;97221.00;10509242;28;20040;-29
2022/10/04 23:25:38;;;;;;;1.60;1.00;;;;;;;17.86;62.63;97221.09;10508575;28;20025;-29
2022/10/04 23:30:39;;;;;;;2.03;1.48;;;;;;;17.89;62.53;97224.50;10517643;28;20068;-28
2022/10/04 23:35:40;;;;;;;3.13;1.10;;;;;;;17.89;62.27;97223.66;10514584;28;20112;-29
2022/10/04 23:40:40;;;;;;;1.95;1.10;;;;;;;17.83;62.15;97213.47;10524264;28;20044;-30
2022/10/04 23:45:43;;;;;;;0.90;0.85;;;;;;;17.81;62.24;97210.06;10515339;28;20094;-28
2022/10/04 23:50:43;;;;;;;3.47;1.17;;;;;;;17.79;62.27;97201.59;10526641;28;20048;-29
2022/10/04 23:55:44;;;;;;;1.15;1.05;;;;;;;17.75;62.43;97192.28;10510073;28;20040;-29
